Time;durP1;ratioP1;P1;durP2;ratioP2;P2;SDS_P1;SDS_P2;PMS_P1;PMS_P2;Temp;Humidity;BMP_temperature;BMP_pressure;BME280_temperature;BME280_humidity;BME280_pressure;Samples;Min_cycle;Max_cycle;Signal;HPM_P1;HPM_P2
2023/02/21 18:21:23;;;;;;;;;;;;;;;;;;4949509;28;19957;-93
2023/02/21 18:23:50;;;;;;;;;;;;;;;;;;4969783;28;20010;-95
2023/02/21 18:26:17;;;;;;;;;;;;;;;;;;4951552;28;19932;-93
2023/02/21 18:28:44;;;;;;;;;;;;;;;;;;4954714;28;19937;-95
2023/02/21 18:31:17;;;;;;;;;;;;;;;;;;4954024;28;20449;-96
2023/02/21 18:33:48;;;;;;;;;;;;;;;;;;4964269;28;20318;-96
2023/02/21 18:36:14;;;;;;;;;;;;;;;;;;4949125;28;19981;-95
2023/02/21 18:38:41;;;;;;;;;;;;;;;;;;4952980;28;19931;-95
2023/02/21 18:41:11;;;;;;;;;;;;;;;;;;4949155;28;20413;-94
2023/02/21 18:43:39;;;;;;;;;;;;;;;;;;4949879;28;19936;-96
2023/02/21 18:46:12;;;;;;;;;;;;;;;;;;4968186;28;19982;-96
2023/02/21 18:48:43;;;;;;;;;;;;;;;;;;4952713;28;19981;-94
2023/02/21 18:51:11;;;;;;;;;;;;;;;;;;4954052;28;19932;-93
2023/02/21 18:53:38;;;;;;;;;;;;;;;;;;4953096;28;19937;-94
2023/02/21 18:56:09;;;;;;;;;;;;;;;;;;4947133;28;19937;-95
2023/02/21 18:58:36;;;;;;;;;;;;;;;;;;4959142;28;19950;-96
2023/02/21 19:01:04;;;;;;;;;;;;;;;;;;4971520;28;19927;-93
2023/02/21 19:03:31;;;;;;;;;;;;;;;;;;4954924;28;19927;-92
2023/02/21 19:05:58;;;;;;;;;;;;;;;;;;4956575;29;19935;-94
2023/02/21 19:08:25;;;;;;;;;;;;;;;;;;4954408;28;20116;-95
2023/02/21 19:10:54;;;;;;;;;;;;;;;;;;4952820;28;20662;-93
2023/02/21 19:13:21;;;;;;;;;;;;;;;;;;4946849;28;19937;-90
2023/02/21 19:15:48;;;;;;;;;;;;;;;;;;4951697;29;19969;-91
2023/02/21 19:18:15;;;;;;;;;;;;;;;;;;4951568;28;20805;-92
2023/02/21 19:20:42;;;;;;;;;;;;;;;;;;4966256;28;19930;-93
2023/02/21 19:23:09;;;;;;;;;;;;;;;;;;4957256;28;20360;-90
2023/02/21 19:25:36;;;;;;;;;;;;;;;;;;4951080;28;20667;-92
2023/02/21 19:28:02;;;;;;;;;;;;;;;;;;4951387;29;19926;-93
2023/02/21 19:30:35;;;;;;;;;;;;;;;;;;4967027;28;19926;-92
2023/02/21 19:33:02;;;;;;;;;;;;;;;;;;4953348;28;19930;-93
2023/02/21 19:35:28;;;;;;;;;;;;;;;;;;4952070;28;19926;-93
2023/02/21 19:37:54;;;;;;;;;;;;;;;;;;4949759;28;20017;-93
2023/02/21 19:40:20;;;;;;;;;;;;;;;;;;4950402;28;20017;-94
2023/02/21 19:42:47;;;;;;;;;;;;;;;;;;4952865;28;20711;-94
2023/02/21 19:45:12;;;;;;;;;;;;;;;;;;4952831;28;19933;-95
2023/02/21 19:47:38;;;;;;;;;;;;;;;;;;4953572;28;20056;-94
2023/02/21 19:50:03;;;;;;;;;;;;;;;;;;4948959;28;19926;-95
2023/02/21 19:52:28;;;;;;;;;;;;;;;;;;4952918;28;19957;-94
2023/02/21 19:54:54;;;;;;;;;;;;;;;;;;4953852;28;20414;-92
2023/02/21 19:57:19;;;;;;;;;;;;;;;;;;4953599;28;20374;-91
2023/02/21 19:59:44;;;;;;;;;;;;;;;;;;4953568;28;20028;-92
2023/02/21 20:02:10;;;;;;;;;;;;;;;;;;4951536;28;20048;-92
2023/02/21 20:04:35;;;;;;;;;;;;;;;;;;4953930;28;19996;-92
2023/02/21 20:07:01;;;;;;;;;;;;;;;;;;4953024;28;19934;-92
2023/02/21 20:09:26;;;;;;;;;;;;;;;;;;4952292;28;19926;-92
2023/02/21 20:11:51;;;;;;;;;;;;;;;;;;4967698;28;20038;-91
2023/02/21 20:14:17;;;;;;;;;;;;;;;;;;4960673;28;19960;-93
2023/02/21 20:16:43;;;;;;;;;;;;;;;;;;4955788;28;19937;-94
2023/02/21 20:19:10;;;;;;;;;;;;;;;;;;4955567;28;19926;-95
2023/02/21 20:21:35;;;;;;;;;;;;;;;;;;4957865;28;20010;-93
2023/02/21 20:24:02;;;;;;;;;;;;;;;;;;4967399;28;20395;-94
2023/02/21 20:26:27;;;;;;;;;;;;;;;;;;4961681;28;20397;-95
2023/02/21 20:28:53;;;;;;;;;;;;;;;;;;4957361;28;20017;-93
2023/02/21 20:31:19;;;;;;;;;;;;;;;;;;4951135;28;20411;-93
2023/02/21 20:33:45;;;;;;;;;;;;;;;;;;4951141;28;19926;-93
2023/02/21 20:36:11;;;;;;;;;;;;;;;;;;4958657;28;20348;-94
2023/02/21 20:38:37;;;;;;;;;;;;;;;;;;4954489;28;19965;-95
2023/02/21 20:41:03;;;;;;;;;;;;;;;;;;4953382;28;20444;-95
2023/02/21 20:43:28;;;;;;;;;;;;;;;;;;4962021;28;19930;-94
2023/02/21 20:45:53;;;;;;;;;;;;;;;;;;4952689;28;19966;-94
2023/02/21 20:48:24;;;;;;;;;;;;;;;;;;4953050;28;19926;-93
2023/02/21 20:51:14;;;;;;;;;;;;;;;;;;4941150;28;19986;-92
2023/02/21 20:53:40;;;;;;;;;;;;;;;;;;4950622;28;19934;-92
2023/02/21 20:56:07;;;;;;;;;;;;;;;;;;4948049;28;20469;-94
2023/02/21 20:58:33;;;;;;;;;;;;;;;;;;4951769;28;20016;-94
2023/02/21 21:01:02;;;;;;;;;;;;;;;;;;4950134;28;19938;-95
2023/02/21 21:03:28;;;;;;;;;;;;;;;;;;4952407;28;20396;-94
2023/02/21 21:05:53;;;;;;;;;;;;;;;;;;4952282;28;19965;-94
2023/02/21 21:08:19;;;;;;;;;;;;;;;;;;4965971;28;19934;-94
2023/02/21 21:10:47;;;;;;;;;;;;;;;;;;4951717;29;20024;-93
2023/02/21 21:13:15;;;;;;;;;;;;;;;;;;4947954;28;19982;-95
2023/02/21 21:15:42;;;;;;;;;;;;;;;;;;4947026;28;19974;-93
2023/02/21 21:18:09;;;;;;;;;;;;;;;;;;4946289;28;19927;-92
2023/02/21 21:20:37;;;;;;;;;;;;;;;;;;4935586;28;19993;-94
2023/02/21 21:23:04;;;;;;;;;;;;;;;;;;4959544;28;19969;-92
2023/02/21 21:25:33;;;;;;;;;;;;;;;;;;4951951;28;19934;-91
2023/02/21 21:27:58;;;;;;;;;;;;;;;;;;4951106;28;20016;-92
2023/02/21 21:30:24;;;;;;;;;;;;;;;;;;4950480;28;20635;-90
2023/02/21 21:32:49;;;;;;;;;;;;;;;;;;4963459;28;19930;-90
2023/02/21 21:35:16;;;;;;;;;;;;;;;;;;4949700;28;19934;-92
2023/02/21 21:37:41;;;;;;;;;;;;;;;;;;4965389;28;19966;-90
2023/02/21 21:40:15;;;;;;;;;;;;;;;;;;4950770;28;20017;-90
2023/02/21 21:42:42;;;;;;;;;;;;;;;;;;4950523;28;19931;-90
2023/02/21 21:45:17;;;;;;;;;;;;;;;;;;4949083;28;19930;-89
2023/02/21 21:47:42;;;;;;;;;;;;;;;;;;4942961;28;19934;-90
2023/02/21 21:50:08;;;;;;;;;;;;;;;;;;4961582;28;20375;-93
2023/02/21 21:52:33;;;;;;;;;;;;;;;;;;4945933;28;20254;-93
2023/02/21 21:54:58;;;;;;;;;;;;;;;;;;4945421;28;20448;-94
2023/02/21 21:57:26;;;;;;;;;;;;;;;;;;4960756;28;19938;-93
2023/02/21 21:59:51;;;;;;;;;;;;;;;;;;4947855;28;20426;-92
2023/02/21 22:02:17;;;;;;;;;;;;;;;;;;4947765;28;19935;-91
2023/02/21 22:04:43;;;;;;;;;;;;;;;;;;4950156;28;19927;-94
2023/02/21 22:07:10;;;;;;;;;;;;;;;;;;4949747;28;20034;-95
2023/02/21 22:09:38;;;;;;;;;;;;;;;;;;4952111;28;19953;-94
2023/02/21 22:12:05;;;;;;;;;;;;;;;;;;4954308;28;19933;-92
2023/02/21 22:14:30;;;;;;;;;;;;;;;;;;4970973;28;20355;-92
2023/02/21 22:16:55;;;;;;;;;;;;;;;;;;4951550;28;19927;-92
2023/02/21 22:19:22;;;;;;;;;;;;;;;;;;4954657;28;20307;-94
2023/02/21 22:21:47;;;;;;;;;;;;;;;;;;4954327;28;19926;-92
2023/02/21 22:24:14;;;;;;;;;;;;;;;;;;4953328;28;19933;-93
2023/02/21 22:26:39;;;;;;;;;;;;;;;;;;4957764;28;19915;-93
2023/02/21 22:29:05;;;;;;;;;;;;;;;;;;4968273;28;19930;-93
2023/02/21 22:31:31;;;;;;;;;;;;;;;;;;4982391;28;19922;-93
2023/02/21 22:33:58;;;;;;;;;;;;;;;;;;4968610;28;19994;-94
2023/02/21 22:36:24;;;;;;;;;;;;;;;;;;4960690;28;19927;-94
2023/02/21 22:38:50;;;;;;;;;;;;;;;;;;4955195;28;20388;-91
2023/02/21 22:41:19;;;;;;;;;;;;;;;;;;4953279;28;20025;-91
2023/02/21 22:43:48;;;;;;;;;;;;;;;;;;4953289;28;19926;-92
2023/02/21 22:46:15;;;;;;;;;;;;;;;;;;4952748;28;20344;-93
2023/02/21 22:48:40;;;;;;;;;;;;;;;;;;4953118;28;19934;-92
2023/02/21 22:51:07;;;;;;;;;;;;;;;;;;4952416;28;19927;-90
2023/02/21 22:53:33;;;;;;;;;;;;;;;;;;4954149;28;19926;-92
2023/02/21 22:56:01;;;;;;;;;;;;;;;;;;4953462;28;20028;-91
2023/02/21 22:58:26;;;;;;;;;;;;;;;;;;4953978;28;19926;-91
2023/02/21 23:00:52;;;;;;;;;;;;;;;;;;4953053;28;19935;-91
